• Join FlightAware (Why Join?)
  • Login
  • US Flag 
01:59PM EDT


 

Airport Tracker/Info


-or-


 

Live Flight TrackerFlight Track Log ✈ AAL1686 ✈ 29-Apr-2013 ✈ KLAX - KSTL

Flight Track Log - Related Links

Times and Time Zones

All times are in EDT time to prevent confusion due to time zone crossing. See the AAL1686 flight status page for this flight to view local times or setup timezone preferences in your user account.

Time Position Orientation Groundspeed Altitude Reporting Facility
EDT Latitude Longitude Course Direction KTS MPH feet Rate Location/Type
07:41PM 33.9333 -118.4500 55° Northeast 201 231 1,700  Level Southern California TRACON
07:42PM 33.9108 -118.5272 251° West 240 276 3,700 2,460 Climbing Los Angeles Center
07:43PM 34.1152 -118.1022 51° Northeast  Level FlightAware Approximate
07:43PM 33.8792 -118.6064 244° Southwest 248 285 6,700  Level Los Angeles Center
07:44PM 34.1776 -117.9781 59° Northeast  Level FlightAware Approximate
07:44PM 33.8203 -118.5997 175° South 263 303 8,500  Level Los Angeles Center
07:45PM 34.2459 -117.8667 North  Level FlightAware Approximate
07:45PM 33.8511 -118.5017 69° East 297 342 10,900  Level Los Angeles Center
07:46PM 34.3040 -117.7473 55° Northeast  Level FlightAware Approximate
07:46PM 33.9103 -118.4503 36° Northeast 304 350 12,500  Level Los Angeles Center
07:47PM 33.9739 -118.3608 49° Northeast 360 414 13,700 1,620 Climbing Los Angeles Center
07:48PM 34.0500 -118.2261 56° Northeast 400 460 15,900 2,160 Climbing Los Angeles Center
07:49PM 34.1172 -118.1086 55° Northeast 420 483 18,200 1,980 Climbing Los Angeles Center
07:50PM 34.1839 -117.9886 56° Northeast 429 494 20,100 1,800 Climbing Los Angeles Center
07:51PM 34.2531 -117.8667 56° Northeast 438 504 22,000 1,620 Climbing Los Angeles Center
07:52PM 34.3228 -117.7419 56° Northeast 445 512 23,500 1,560 Climbing Los Angeles Center
07:53PM 34.3967 -117.6092 56° Northeast 454 522 25,300 1,800 Climbing Los Angeles Center
07:54PM 34.4667 -117.4822 56° Northeast 457 526 27,300 1,740 Climbing Los Angeles Center
07:55PM 34.5431 -117.3689 51° Northeast 439 505 29,000 1,500 Climbing Los Angeles Center
07:56PM 34.6400 -117.2378 48° Northeast 437 503 30,500 1,260 Climbing Los Angeles Center
07:57PM 34.7178 -117.1269 49° Northeast 436 502 31,700 720 Climbing Los Angeles Center
07:59PM 34.7961 -117.0175 49° Northeast 432 497 32,000 480 Climbing Los Angeles Center
08:00PM 34.8742 -116.9056 50° Northeast 435 501 32,700 480 Climbing Los Angeles Center
08:01PM 34.9372 -116.8164 49° Northeast 435 501 33,000 120 Climbing Los Angeles Center
08:02PM 35.0461 -116.6606 49° Northeast 435 501 33,000  Level Los Angeles Center
08:03PM 35.1236 -116.5503 49° Northeast 433 498 33,000  Level Los Angeles Center
08:04PM 35.2033 -116.4383 49° Northeast 435 501 33,000  Level Los Angeles Center
08:05PM 35.2800 -116.3269 50° Northeast 431 496 33,000  Level Los Angeles Center
08:06PM 35.3567 -116.2139 50° Northeast 432 497 33,000  Level Los Angeles Center
08:07PM 35.4497 -116.0808 49° Northeast 431 496 33,000  Level Los Angeles Center
08:08PM 35.5264 -115.9681 50° Northeast 431 496 33,000  Level Los Angeles Center
08:09PM 35.6019 -115.8633 48° Northeast 428 493 33,000  Level Los Angeles Center
08:10PM 35.6919 -115.7297 50° Northeast 422 486 33,000  Level Los Angeles Center
08:11PM 35.7686 -115.6192 49° Northeast 423 487 33,000  Level Los Angeles Center
08:12PM 35.8436 -115.5086 50° Northeast 421 484 33,000  Level Los Angeles Center
08:13PM 35.9344 -115.3742 50° Northeast 425 489 33,000  Level Los Angeles Center
08:14PM 36.0086 -115.2644 50° Northeast 420 483 33,000  Level Los Angeles Center
08:15PM 36.0908 -115.1233 54° Northeast 427 491 33,000  Level Los Angeles Center
08:16PM 36.1250 -115.0147 69° East 427 491 33,000  Level Los Angeles Center
08:17PM 36.1750 -114.8467 70° East 434 499 33,000  Level Los Angeles Center
08:18PM 36.2175 -114.7081 69° East 434 499 33,000  Level Los Angeles Center
08:19PM 36.2600 -114.5700 69° East 431 496 33,000  Level Los Angeles Center
08:20PM 36.3022 -114.4317 69° East 431 496 33,000  Level Los Angeles Center
08:21PM 36.3519 -114.2658 70° East 428 493 33,000  Level Los Angeles Center
08:23PM 36.3925 -114.1294 70° East 424 488 33,000  Level Los Angeles Center
08:24PM 36.4344 -113.9917 69° East 425 489 33,000  Level Los Angeles Center
08:25PM 36.4761 -113.8528 70° East 429 494 33,000  Level Los Angeles Center
08:26PM 36.5175 -113.7094 70° East 433 498 33,000  Level Los Angeles Center
08:27PM 36.5597 -113.5694 69° East 435 501 33,000  Level Los Angeles Center
08:28PM 36.6089 -113.4003 70° East 434 499 33,000  Level Los Angeles Center
08:29PM 36.6503 -113.2603 70° East 434 499 33,000  Level Los Angeles Center
08:30PM 36.6908 -113.1169 71° East 438 504 33,000  Level Los Angeles Center
08:31PM 36.7319 -112.9753 70° East 438 504 33,000  Level Los Angeles Center
08:32PM 36.7728 -112.8314 70° East 440 506 33,000  Level Los Angeles Center
08:33PM 36.8139 -112.6894 70° East 438 504 33,000  Level Los Angeles Center
08:34PM 36.8619 -112.5186 71° East 438 504 33,000  Level Los Angeles Center
08:35PM 36.9025 -112.3753 70° East 439 505 33,000  Level Los Angeles Center
08:36PM 36.9422 -112.2322 71° East 439 505 33,000  Level Los Angeles Center
08:37PM 36.9817 -112.0878 71° East 440 506 33,000  Level Los Angeles Center
08:37PM 36.9978 -112.0311 70° East 441 507 33,000  Level Denver Center
08:38PM 37.0381 -111.8886 70° East 439 505 33,000  Level Denver Center
08:39PM 37.0769 -111.7439 71° East 440 506 33,000  Level Denver Center
08:40PM 37.1172 -111.5978 71° East 444 511 33,000  Level Denver Center
08:41PM 37.1642 -111.4247 71° East 441 507 33,000  Level Denver Center
08:42PM 37.2033 -111.2783 71° East 444 511 33,000  Level Denver Center
08:43PM 37.2436 -111.1333 71° East 442 509 33,000  Level Denver Center
08:45PM 37.2822 -110.9864 72° East 444 511 33,000  Level Denver Center
08:46PM 37.3217 -110.8386 71° East 447 514 33,000  Level Denver Center
08:47PM 37.3608 -110.6917 71° East 445 512 33,000  Level Denver Center
08:48PM 37.3997 -110.5439 72° East 448 516 33,000  Level Denver Center
08:49PM 37.4450 -110.3675 72° East 444 511 33,000  Level Denver Center
08:50PM 37.4831 -110.2200 72° East 444 511 33,000  Level Denver Center
08:51PM 37.5214 -110.0742 72° East 444 511 33,000  Level Denver Center
08:52PM 37.5708 -109.8831 72° East 448 516 33,000  Level Denver Center
08:53PM 37.6075 -109.7400 72° East 449 517 33,000  Level Denver Center
08:54PM 37.6494 -109.5725 72° East 448 516 33,000  Level Denver Center
08:55PM 37.6858 -109.4269 72° East 451 519 33,000  Level Denver Center
08:56PM 37.7281 -109.2583 72° East 452 520 33,000  Level Denver Center
08:57PM 37.7636 -109.1125 73° East 453 521 33,000  Level Denver Center
08:58PM 37.8094 -108.9192 73° East 448 516 33,000  Level Denver Center
08:59PM 37.8292 -108.7708 80° East 447 514 33,000  Level Denver Center
09:00PM 37.8506 -108.5964 81° East 449 517 33,000  Level Denver Center
09:01PM 37.8694 -108.4481 81° East 447 514 33,000  Level Denver Center
09:02PM 37.8903 -108.2697 82° East 455 524 33,000  Level Denver Center
09:03PM 37.9089 -108.1186 81° East 455 524 33,000  Level Denver Center
09:05PM 37.9275 -107.9675 81° East 454 522 33,000  Level Denver Center
09:06PM 37.9483 -107.7925 81° East 451 519 33,000  Level Denver Center
09:07PM 37.9661 -107.6419 81° East 449 517 33,000  Level Denver Center
09:08PM 37.9856 -107.4653 82° East 453 521 33,000  Level Denver Center
09:09PM 38.0031 -107.3164 81° East 447 514 33,000  Level Denver Center
09:10PM 38.0217 -107.1503 82° East 446 513 33,000  Level Denver Center
09:11PM 38.0386 -106.9997 82° East 451 519 33,000  Level Denver Center
09:12PM 38.0569 -106.8239 82° East 453 521 33,000  Level Denver Center
09:13PM 38.0750 -106.6725 81° East 453 521 33,000  Level Denver Center
09:14PM 38.0933 -106.4964 82° East 453 521 33,000  Level Denver Center
09:15PM 38.1067 -106.3636 83° East 447 514 33,000  Level Denver Center
09:16PM 38.1264 -106.1764 82° East 446 513 33,000  Level Denver Center
09:17PM 38.1422 -106.0239 82° East 449 517 33,000  Level Denver Center
09:18PM 38.1608 -105.8478 82° East 450 518 33,000  Level Denver Center
09:19PM 38.1742 -105.6964 84° East 451 519 33,000  Level Denver Center
09:20PM 38.1900 -105.5456 82° East 450 518 33,000  Level Denver Center
09:21PM 38.2069 -105.3694 83° East 450 518 33,000  Level Denver Center
09:22PM 38.2217 -105.2200 83° East 444 511 33,000  Level Denver Center
09:23PM 38.2378 -105.0439 83° East 449 517 33,000  Level Denver Center
09:24PM 38.2525 -104.8936 83° East 448 516 33,000  Level Denver Center
09:25PM 38.2683 -104.7181 83° East 446 513 33,000  Level Denver Center
09:26PM 38.2853 -104.5378 83° East 453 521 33,000  Level Denver Center
09:27PM 38.3014 -104.3642 83° East 445 512 33,000  Level Denver Center
09:28PM 38.3222 -104.2117 80° East 452 520 33,000  Level Denver Center
09:29PM 38.3447 -104.0353 81° East 451 519 33,000  Level Denver Center
09:30PM 38.3633 -103.8858 81° East 445 512 33,000  Level Denver Center
09:32PM 38.3858 -103.7089 81° East 450 518 33,000  Level Denver Center
09:33PM 38.4036 -103.5581 81° East 450 518 33,000  Level Denver Center
09:34PM 38.4236 -103.3986 81° East 447 514 33,000  Level Denver Center
09:35PM 38.4411 -103.2478 82° East 449 517 33,000  Level Denver Center
09:36PM 38.4631 -103.0708 81° East 454 522 33,000  Level Denver Center
09:37PM 38.4806 -102.9208 81° East 449 517 33,000  Level Denver Center
09:38PM 38.5006 -102.7461 82° East 447 514 33,000  Level Denver Center
09:39PM 38.5175 -102.5975 82° East 443 510 33,000  Level Denver Center
09:40PM 38.5375 -102.4222 82° East 447 514 33,000  Level Denver Center
09:41PM 38.5536 -102.2722 82° East 445 512 33,000  Level Denver Center
09:42PM 38.5731 -102.0967 82° East 446 513 33,000  Level Denver Center
09:43PM 38.5894 -101.9478 82° East 443 510 33,000  Level Denver Center
09:44PM 38.6083 -101.7728 82° East 444 511 33,000  Level Denver Center
09:45PM 38.6244 -101.6217 82° East 447 514 33,000  Level Denver Center
09:46PM 38.6406 -101.4703 82° East 448 516 33,000  Level Denver Center
09:47PM 38.6564 -101.3189 82° East 448 516 33,000  Level Denver Center
09:48PM 38.6742 -101.1431 83° East 446 513 33,000  Level Denver Center
09:49PM 38.6919 -100.9683 83° East 443 510 33,000  Level Denver Center
09:50PM 38.7064 -100.8175 83° East 444 511 33,000  Level Denver Center
09:51PM 38.7247 -100.6408 82° East 447 514 33,000  Level Denver Center
09:52PM 38.7389 -100.4864 83° East 454 522 33,000  Level Denver Center
09:54PM 38.7581 -100.2858 83° East 447 514 33,000 240 Level Denver Center
09:55PM 38.7764 -100.0833 83° East 447 514 33,600 780 Climbing Denver Center
09:56PM 38.7897 -99.9336 83° East 444 511 34,700 660 Climbing Denver Center
09:57PM 38.8067 -99.7622 83° East 438 504 35,000 60 Climbing Denver Center
09:59PM 38.8292 -99.4842 84° East 445 512 35,000  Level Denver Center
10:00PM 38.8472 -99.2833 83° East 445 512 35,000  Level Denver Center
10:00PM 38.8481 -99.2550 88° East 443 510 35,000  Level Kansas City Center
10:01PM 38.8606 -99.0939 84° East 449 517 35,000  Level Kansas City Center
10:02PM 38.8706 -98.9378 85° East 441 507 35,000  Level Kansas City Center
10:03PM 38.8828 -98.7494 85° East 440 506 35,000  Level Kansas City Center
10:04PM 38.8933 -98.5953 85° East 435 501 35,000  Level Kansas City Center
10:05PM 38.9042 -98.4381 85° East 439 505 35,000  Level Kansas City Center
10:06PM 38.9131 -98.2806 86° East 440 506 35,000  Level Kansas City Center
10:07PM 38.9236 -98.1256 85° East 437 503 35,000  Level Kansas City Center
10:08PM 38.9328 -97.9667 86° East 443 510 35,000  Level Kansas City Center
10:09PM 38.9428 -97.7978 86° East 440 506 35,000  Level Kansas City Center
10:10PM 38.9394 -97.6467 92° East 443 510 35,000  Level Kansas City Center
10:11PM 38.9350 -97.4928 92° East 442 509 35,000  Level Kansas City Center
10:12PM 38.9322 -97.3339 91° East 443 510 35,000  Level Kansas City Center
10:13PM 38.9292 -97.1786 91° East 437 503 35,000  Level Kansas City Center
10:14PM 38.9258 -97.0203 92° East 441 507 35,000  Level Kansas City Center
10:15PM 38.9214 -96.8297 92° East 443 510 35,000  Level Kansas City Center
10:16PM 38.9181 -96.6697 91° East 447 514 35,000  Level Kansas City Center
10:17PM 38.9147 -96.5142 92° East 441 507 35,000  Level Kansas City Center
10:19PM 38.9092 -96.3617 93° East 449 517 35,000  Level Kansas City Center
10:20PM 38.9025 -96.1811 93° East 455 524 35,000  Level Kansas City Center
10:21PM 38.8994 -96.0289 91° East 451 519 35,000  Level Kansas City Center
10:22PM 38.8944 -95.8500 92° East 450 518 35,000  Level Kansas City Center
10:23PM 38.8889 -95.6939 93° East 458 527 35,000  Level Kansas City Center
10:24PM 38.8850 -95.5397 92° East 456 525 35,000  Level Kansas City Center
10:25PM 38.8775 -95.3608 93° East 454 522 35,000  Level Kansas City Center
10:26PM 38.8717 -95.2067 93° East 455 524 35,000  Level Kansas City Center
10:27PM 38.8658 -95.0272 92° East 455 524 35,000  Level Kansas City Center
10:28PM 38.8592 -94.8706 93° East 460 529 35,000  Level Kansas City Center
10:29PM 38.8525 -94.6900 93° East 458 527 35,000  Level Kansas City Center
10:30PM 38.8486 -94.5322 92° East 463 533 35,000  Level Kansas City Center
10:31PM 38.8447 -94.3769 92° East 458 527 35,000  Level Kansas City Center
10:32PM 38.8386 -94.1944 92° East 459 528 35,000  Level Kansas City Center
10:33PM 38.8333 -94.0347 92° East 467 537 35,000  Level Kansas City Center
10:34PM 38.8272 -93.8464 92° East 473 544 35,000  Level Kansas City Center
10:35PM 38.8242 -93.7031 92° East 476 548 35,000  Level Kansas City Center
10:36PM 38.8156 -93.5019 93° East 473 544 35,000  Level Kansas City Center
10:37PM 38.8044 -93.3358 95° East 469 540 35,000  Level Kansas City Center
10:38PM 38.7936 -93.1683 95° East 469 540 35,000 -240 Level Kansas City Center
10:39PM 38.7825 -93.0022 95° East 467 537 34,600 -900 Descending Kansas City Center
10:40PM 38.7711 -92.8361 95° East 467 537 33,200 -1,800 Descending Kansas City Center
10:41PM 38.7592 -92.6669 95° East 470 541 31,000 -2,520 Descending Kansas City Center
10:42PM 38.7472 -92.4961 95° East 473 544 28,100 -2,700 Descending Kansas City Center
10:43PM 38.7361 -92.3225 95° East 481 554 25,600 -2,280 Descending Kansas City Center
10:44PM 38.7233 -92.1567 96° East 471 542 23,500 -2,220 Descending Kansas City Center
10:45PM 38.7117 -91.9997 95° East 449 517 21,100 -2,100 Descending Kansas City Center
10:46PM 38.7000 -91.8500 96° East 428 493 19,300 -1,860 Descending Kansas City Center
10:47PM 38.6906 -91.7028 95° East 416 479 17,400 -1,860 Descending Kansas City Center
10:48PM 38.6931 -91.5586 89° East 408 470 15,600 -1,800 Descending Kansas City Center
10:49PM 38.6919 -91.4164 91° East 400 460 13,800 -1,920 Descending Kansas City Center
10:50PM 38.6931 -91.2683 89° East 390 449 11,800 -1,500 Descending Kansas City Center
10:51PM 38.7086 -91.1397 81° East 372 428 10,800 -960 Descending Kansas City Center
10:52PM 38.7364 -91.0308 72° East 333 383 9,900 -1,200 Descending Kansas City Center
10:53PM 38.7608 -90.9286 73° East 307 353 8,400 -1,620 Descending Kansas City Center
10:54PM 38.7861 -90.8269 72° East 301 346 6,700 -1,680 Descending Kansas City Center
10:55PM 38.8106 -90.7222 73° East 303 349 5,000 -1,680 Descending Kansas City Center